createdAt,value
2019-03-19T00:04:40.679Z,57.40
2019-03-19T00:09:44.944Z,57.50
2019-03-19T00:14:49.155Z,57.40
2019-03-19T00:19:53.560Z,57.60
2019-03-19T00:24:57.528Z,57.70
2019-03-19T00:30:01.873Z,57.30
2019-03-19T00:35:06.424Z,57.30
2019-03-19T00:40:10.656Z,57.50
2019-03-19T00:45:15.051Z,57.60
2019-03-19T00:50:19.355Z,57.40
2019-03-19T00:55:23.536Z,57.60
2019-03-19T01:00:28.071Z,57.50
2019-03-19T01:05:32.652Z,57.40
2019-03-19T01:10:36.938Z,57.30
2019-03-19T01:15:41.155Z,57.70
2019-03-19T01:20:45.589Z,57.50
2019-03-19T01:25:55.710Z,57.10
2019-03-19T01:30:56.469Z,57.00
2019-03-19T01:36:00.559Z,57.50
2019-03-19T01:41:04.883Z,57.50
2019-03-19T01:46:09.115Z,57.60
2019-03-19T01:51:13.689Z,57.40
2019-03-19T01:56:18.251Z,57.30
2019-03-19T02:01:22.296Z,57.30
2019-03-19T02:06:26.602Z,57.50
2019-03-19T02:11:30.918Z,57.40
2019-03-19T02:16:35.227Z,57.40
2019-03-19T02:21:39.204Z,57.50
2019-03-19T02:26:44.044Z,57.30
2019-03-19T02:31:48.077Z,57.30
2019-03-19T02:36:52.006Z,57.50
2019-03-19T02:41:55.920Z,57.40
2019-03-19T02:46:59.843Z,57.60
2019-03-19T02:52:03.779Z,57.60
2019-03-19T02:57:07.984Z,57.60
2019-03-19T03:02:11.869Z,57.40
2019-03-19T03:07:16.331Z,57.50
2019-03-19T03:12:20.545Z,57.70
2019-03-19T03:17:24.858Z,57.70
2019-03-19T03:22:28.736Z,57.80
2019-03-19T03:27:32.856Z,57.60
2019-03-19T03:32:36.881Z,57.80
2019-03-19T03:37:41.122Z,57.70
2019-03-19T03:42:45.309Z,57.80
2019-03-19T03:47:49.168Z,57.70
2019-03-19T03:52:53.372Z,57.90
2019-03-19T03:57:57.387Z,57.70
2019-03-19T04:03:01.598Z,57.80
2019-03-19T04:08:05.656Z,58.10
2019-03-19T04:13:09.535Z,58.10
2019-03-19T04:18:13.439Z,57.70
2019-03-19T04:23:17.381Z,57.60
2019-03-19T04:28:21.348Z,57.70
2019-03-19T04:33:25.615Z,57.90
2019-03-19T04:38:29.737Z,57.60
2019-03-19T04:43:33.708Z,57.70
2019-03-19T04:48:37.582Z,58.10
2019-03-19T04:53:41.853Z,57.80
2019-03-19T04:58:46.051Z,57.60
2019-03-19T05:03:50.919Z,58.00
2019-03-19T05:08:55.347Z,58.20
2019-03-19T05:13:59.226Z,58.10
2019-03-19T05:19:03.777Z,58.10
2019-03-19T05:24:07.988Z,58.20
2019-03-19T05:29:11.847Z,58.20
2019-03-19T05:34:15.792Z,58.40
2019-03-19T05:39:19.671Z,58.20
2019-03-19T05:44:23.857Z,58.40
2019-03-19T05:49:28.055Z,58.50
2019-03-19T05:54:32.171Z,58.60
2019-03-19T05:59:36.052Z,58.60
2019-03-19T06:04:40.170Z,58.90
2019-03-19T06:09:44.367Z,58.40
2019-03-19T06:14:48.561Z,58.60
2019-03-19T06:19:52.696Z,58.60
2019-03-19T06:24:56.555Z,58.40
2019-03-19T06:30:00.682Z,58.30
2019-03-19T06:35:04.943Z,58.30
2019-03-19T06:40:10.541Z,58.10
2019-03-19T06:45:14.706Z,58.00
2019-03-19T06:50:18.942Z,58.10
2019-03-19T06:55:22.951Z,58.10
2019-03-19T07:00:27.171Z,58.20
2019-03-19T07:05:31.321Z,58.10
2019-03-19T07:10:35.695Z,58.30
2019-03-19T07:15:40.096Z,58.50
2019-03-19T07:20:44.376Z,58.70
2019-03-19T07:25:48.915Z,58.80
2019-03-19T07:30:53.134Z,58.90
2019-03-19T07:35:57.291Z,58.60
2019-03-19T07:41:01.709Z,58.60
2019-03-19T07:46:06.004Z,59.10
2019-03-19T07:51:10.405Z,59.20
2019-03-19T07:56:15.084Z,59.50
2019-03-19T08:01:19.239Z,59.10
2019-03-19T08:06:23.671Z,59.30
2019-03-19T08:11:27.615Z,59.20
2019-03-19T08:16:31.587Z,59.10
2019-03-19T08:21:35.533Z,59.70
2019-03-19T08:26:39.755Z,59.30
2019-03-19T08:31:43.900Z,59.10
2019-03-19T08:36:47.752Z,58.70
2019-03-19T08:41:51.739Z,59.20
2019-03-19T08:46:55.624Z,59.20
2019-03-19T08:51:59.779Z,59.40
2019-03-19T08:57:04.226Z,59.10
2019-03-19T09:02:08.203Z,59.50
2019-03-19T09:07:12.177Z,59.80
2019-03-19T09:12:16.319Z,59.80
2019-03-19T09:17:20.511Z,59.50
2019-03-19T09:22:29.646Z,59.70
2019-03-19T09:27:30.663Z,59.70
2019-03-19T09:32:34.581Z,59.90
2019-03-19T09:37:44.409Z,60.10
2019-03-19T09:42:44.500Z,60.50
2019-03-19T09:47:48.610Z,60.70
2019-03-19T09:52:52.917Z,60.20
2019-03-19T09:57:56.828Z,60.20
2019-03-19T10:03:01.208Z,60.40
2019-03-19T10:08:05.388Z,59.50
2019-03-19T10:13:09.519Z,59.50
2019-03-19T10:18:14.059Z,59.90
2019-03-19T10:23:18.211Z,60.00
2019-03-19T10:28:22.175Z,60.90
2019-03-19T10:33:26.245Z,59.60
2019-03-19T10:38:30.440Z,59.10
2019-03-19T10:43:34.632Z,59.00
2019-03-19T10:48:38.485Z,58.60
2019-03-19T10:53:42.353Z,58.20
2019-03-19T10:58:47.367Z,58.00
2019-03-19T11:03:51.568Z,58.30
2019-03-19T11:08:55.579Z,58.80
2019-03-19T11:13:59.954Z,57.30
2019-03-19T11:19:04.466Z,57.10
2019-03-19T11:24:08.787Z,58.40
2019-03-19T11:29:12.655Z,57.30
2019-03-19T11:34:17.130Z,58.50
2019-03-19T11:39:20.995Z,56.30
2019-03-19T11:44:24.855Z,57.00
2019-03-19T11:49:28.794Z,59.00
2019-03-19T11:54:32.676Z,58.50
2019-03-19T11:59:36.979Z,58.80
2019-03-19T12:04:41.435Z,58.10
2019-03-19T12:09:45.319Z,57.40
2019-03-19T12:14:49.167Z,58.30
2019-03-19T12:19:53.415Z,58.00
2019-03-19T12:24:58.261Z,54.10
2019-03-19T12:30:02.379Z,53.10
2019-03-19T12:35:06.874Z,53.30
2019-03-19T12:40:12.639Z,55.80
2019-03-19T12:45:16.919Z,53.50
2019-03-19T12:50:20.975Z,53.30
2019-03-19T12:55:24.966Z,54.00
2019-03-19T13:00:34.607Z,53.50
2019-03-19T13:05:35.619Z,53.10
2019-03-19T13:10:39.933Z,56.30
2019-03-19T13:15:44.041Z,55.10
2019-03-19T13:20:48.406Z,54.60
2019-03-19T13:25:52.795Z,57.30
2019-03-19T13:30:58.767Z,63.40
2019-03-19T13:36:03.293Z,63.00
2019-03-19T13:41:07.760Z,63.60
2019-03-19T13:46:11.809Z,62.60
2019-03-19T13:51:16.229Z,61.60
2019-03-19T13:56:20.978Z,61.00
2019-03-19T14:01:24.900Z,60.60
2019-03-19T14:06:29.128Z,60.20
2019-03-19T14:11:33.307Z,59.40
2019-03-19T14:16:37.268Z,59.10
2019-03-19T14:21:41.595Z,59.10
2019-03-19T14:26:45.608Z,58.60
2019-03-19T14:31:50.057Z,58.30
2019-03-19T14:36:59.045Z,56.50
2019-03-19T14:42:03.031Z,53.40
2019-03-19T14:47:07.191Z,53.80
2019-03-19T14:52:11.380Z,54.20
2019-03-19T14:57:15.555Z,53.80
2019-03-19T15:02:19.483Z,53.90
2019-03-19T15:07:24.018Z,50.80
2019-03-19T15:12:28.367Z,53.70
2019-03-19T15:17:32.414Z,49.80
2019-03-19T15:22:36.307Z,51.80
2019-03-19T15:27:40.496Z,54.50
2019-03-19T15:32:44.564Z,51.50
2019-03-19T15:37:49.349Z,54.10
2019-03-19T15:42:53.458Z,51.70
2019-03-19T15:47:57.803Z,55.30
2019-03-19T15:53:03.101Z,49.30
2019-03-19T15:58:07.339Z,57.80
2019-03-19T16:03:11.275Z,56.90
2019-03-19T16:08:15.439Z,60.50
2019-03-19T16:13:20.024Z,53.80
2019-03-19T16:18:24.452Z,58.60
2019-03-19T16:23:28.791Z,58.20
2019-03-19T16:28:32.655Z,50.60
2019-03-19T16:33:37.287Z,51.90
2019-03-19T16:38:41.159Z,57.50
2019-03-19T16:43:45.128Z,51.00
2019-03-19T16:48:49.498Z,52.10
2019-03-19T16:53:53.843Z,55.30
2019-03-19T16:58:58.476Z,57.60
2019-03-19T17:04:02.699Z,56.30
2019-03-19T17:09:07.814Z,59.20
2019-03-19T17:14:11.932Z,57.30
2019-03-19T17:19:15.815Z,57.50
2019-03-19T17:24:19.965Z,57.40
2019-03-19T17:29:24.100Z,57.10
2019-03-19T17:34:28.336Z,57.10
2019-03-19T17:39:32.694Z,57.00
2019-03-19T17:44:36.915Z,56.70
2019-03-19T17:49:41.540Z,56.60
2019-03-19T17:54:45.650Z,56.60
2019-03-19T17:59:54.111Z,56.60
2019-03-19T18:04:58.215Z,56.70
2019-03-19T18:10:02.322Z,56.00
2019-03-19T18:15:07.509Z,56.30
2019-03-19T18:20:11.767Z,56.20
2019-03-19T18:25:16.085Z,56.10
2019-03-19T18:30:20.406Z,55.90
2019-03-19T18:35:24.603Z,55.60
2019-03-19T18:40:29.331Z,63.80
2019-03-19T18:45:33.623Z,58.30
2019-03-19T18:50:38.040Z,56.80
2019-03-19T18:55:42.148Z,56.50
2019-03-19T19:00:46.135Z,55.90
2019-03-19T19:05:56.670Z,56.00
2019-03-19T19:11:00.671Z,55.90
2019-03-19T19:16:04.786Z,56.00
2019-03-19T19:21:08.699Z,56.00
2019-03-19T19:26:12.716Z,56.00
2019-03-19T19:31:16.576Z,55.80
2019-03-19T19:36:21.123Z,55.20
2019-03-19T19:41:25.392Z,57.60
2019-03-19T19:46:29.844Z,55.90
2019-03-19T19:51:33.824Z,56.10
2019-03-19T19:56:38.255Z,56.20
2019-03-19T20:01:42.470Z,55.80
2019-03-19T20:06:46.377Z,56.00
2019-03-19T20:11:50.644Z,55.70
2019-03-19T20:16:54.511Z,55.70
2019-03-19T20:21:59.071Z,55.60
2019-03-19T20:27:03.239Z,55.60
2019-03-19T20:32:07.095Z,55.70
2019-03-19T20:37:10.511Z,55.80
2019-03-19T20:42:14.692Z,55.80
2019-03-19T20:47:18.995Z,55.90
2019-03-19T20:52:23.370Z,55.90
2019-03-19T20:57:27.286Z,55.70
2019-03-19T21:02:31.395Z,55.70
2019-03-19T21:07:35.287Z,55.80
2019-03-19T21:12:40.042Z,56.00
2019-03-19T21:17:43.976Z,55.90
2019-03-19T21:22:47.828Z,56.50
2019-03-19T21:27:52.010Z,55.80
2019-03-19T21:32:55.980Z,55.90
2019-03-19T21:38:00.196Z,55.50
2019-03-19T21:43:04.323Z,55.90
2019-03-19T21:48:08.687Z,55.80
2019-03-19T21:53:13.087Z,55.90
2019-03-19T21:58:17.655Z,56.10
2019-03-19T22:03:21.579Z,55.80
2019-03-19T22:08:25.452Z,55.70
2019-03-19T22:13:29.571Z,56.10
2019-03-19T22:18:33.487Z,56.10
2019-03-19T22:23:37.964Z,56.00
2019-03-19T22:28:41.830Z,55.90
2019-03-19T22:33:45.947Z,56.20
2019-03-19T22:38:49.847Z,56.10
2019-03-19T22:43:53.992Z,55.90
2019-03-19T22:48:58.193Z,56.70
2019-03-19T22:54:02.711Z,56.00
2019-03-19T22:59:06.966Z,56.70
2019-03-19T23:04:11.398Z,56.90
2019-03-19T23:09:15.564Z,56.80
2019-03-19T23:14:20.313Z,56.80
2019-03-19T23:19:24.500Z,56.80
2019-03-19T23:24:28.674Z,57.00
2019-03-19T23:29:32.647Z,56.70
2019-03-19T23:34:38.726Z,57.10
2019-03-19T23:39:42.976Z,57.10
2019-03-19T23:44:47.142Z,57.00
2019-03-19T23:49:51.308Z,56.60
2019-03-19T23:54:55.151Z,56.90
2019-03-19T23:59:59.319Z,57.00
